Black River, Jamaica
Current Conditions -  °F | °C
As of 10:00 AM on Friday 28 Nov 2014 (Local Time) from MKJS Reporting Station
Light Rain Light Rain  
Wind Chill: 75°   Ceiling: 2800
Heat Index: 75°   Visibility: 6mi
Dew Point: 75°   Wind: 6mph
Humidity: 100%   Direction: 70°ENE
Pressure: 30"   Gusts: NA
Location:  18.03°N, 77.86°W
Report Text: MKJS 281500Z 07005KT 9999 -RA FEW018 SCT020CB BKN028 24/24 Q1016
Loading
Personal Weather Stations






























Interactive Weather Map New forecast layout! Learn more

10-Day Weather Forecast

Advertisements
Track Severe Weather on mobile